createdAt,value
2019-05-15T00:02:19.320Z,10.83
2019-05-15T00:04:50.230Z,9.50
2019-05-15T00:07:20.770Z,7.60
2019-05-15T00:09:50.581Z,11.33
2019-05-15T00:12:21.221Z,11.13
2019-05-15T00:14:51.224Z,9.07
2019-05-15T00:17:21.668Z,10.63
2019-05-15T00:19:52.401Z,12.23
2019-05-15T00:22:22.619Z,8.93
2019-05-15T00:24:53.443Z,10.67
2019-05-15T00:27:23.572Z,9.93
2019-05-15T00:29:54.411Z,8.23
2019-05-15T00:32:25.643Z,8.10
2019-05-15T00:34:58.137Z,11.63
2019-05-15T00:37:28.858Z,9.60
2019-05-15T00:42:54.175Z,11.90
2019-05-15T00:45:25.019Z,11.50
2019-05-15T00:47:55.232Z,9.70
2019-05-15T00:50:25.562Z,8.40
2019-05-15T00:52:55.668Z,9.87
2019-05-15T00:55:25.802Z,12.47
2019-05-15T00:57:58.878Z,10.43
2019-05-15T01:00:43.451Z,10.20
2019-05-15T01:03:18.072Z,8.37
2019-05-15T01:05:48.594Z,8.30
2019-05-15T01:08:19.539Z,11.03
2019-05-15T01:10:49.754Z,8.60
2019-05-15T01:13:20.683Z,9.33
2019-05-15T01:15:51.520Z,7.97
2019-05-15T01:18:21.539Z,8.37
2019-05-15T01:20:51.554Z,7.77
2019-05-15T01:23:21.469Z,8.97
2019-05-15T01:25:51.491Z,10.47
2019-05-15T01:28:21.503Z,9.77
2019-05-15T01:30:51.618Z,11.23
2019-05-15T01:33:22.161Z,10.17
2019-05-15T01:35:52.469Z,9.63
2019-05-15T01:38:22.486Z,12.30
2019-05-15T01:40:52.819Z,10.30
2019-05-15T01:43:23.570Z,10.83
2019-05-15T01:45:53.870Z,9.87
2019-05-15T01:48:24.505Z,8.53
2019-05-15T01:50:55.539Z,11.53
2019-05-15T01:53:26.079Z,10.87
2019-05-15T01:55:58.894Z,11.50
2019-05-15T01:58:30.514Z,11.23
2019-05-15T02:01:00.526Z,10.60
2019-05-15T02:03:30.538Z,15.33
2019-05-15T02:06:01.275Z,9.87
2019-05-15T02:08:31.494Z,9.50
2019-05-15T02:11:01.508Z,8.57
2019-05-15T02:13:32.249Z,10.67
2019-05-15T02:16:02.574Z,11.60
2019-05-15T02:18:33.399Z,10.40
2019-05-15T02:21:06.545Z,11.73
2019-05-15T02:23:35.590Z,8.33
2019-05-15T02:26:07.981Z,13.60
2019-05-15T02:28:38.530Z,9.77
2019-05-15T02:31:10.458Z,11.07
2019-05-15T02:33:44.054Z,10.40
2019-05-15T02:36:14.472Z,12.73
2019-05-15T02:38:44.601Z,10.27
2019-05-15T02:41:15.327Z,10.67
2019-05-15T02:43:45.552Z,11.23
2019-05-15T02:46:19.153Z,10.37
2019-05-15T02:48:48.913Z,10.23
2019-05-15T02:51:19.901Z,12.63
2019-05-15T02:53:50.394Z,12.10
2019-05-15T02:56:20.792Z,13.60
2019-05-15T02:58:51.185Z,7.97
2019-05-15T03:01:20.605Z,11.30
2019-05-15T03:03:50.491Z,12.03
2019-05-15T03:06:20.615Z,13.03
2019-05-15T03:08:50.527Z,13.37
2019-05-15T03:11:21.261Z,9.33
2019-05-15T03:13:51.480Z,10.60
2019-05-15T03:16:22.116Z,10.73
2019-05-15T03:18:55.743Z,8.90
2019-05-15T03:21:25.318Z,12.80
2019-05-15T03:23:55.543Z,10.13
2019-05-15T03:26:25.473Z,11.60
2019-05-15T03:28:58.840Z,9.90
2019-05-15T03:31:47.757Z,13.03
2019-05-15T03:34:02.626Z,9.10
2019-05-15T03:36:32.341Z,9.53
2019-05-15T03:39:02.914Z,10.40
2019-05-15T03:41:39.182Z,8.53
2019-05-15T03:44:09.607Z,8.17
2019-05-15T03:46:40.189Z,11.33
2019-05-15T03:49:10.455Z,11.77
2019-05-15T03:51:45.760Z,13.73
2019-05-15T03:54:14.280Z,10.30
2019-05-15T03:56:49.551Z,8.83
2019-05-15T03:59:19.646Z,10.57
2019-05-15T04:01:52.096Z,12.20
2019-05-15T04:04:23.148Z,10.00
2019-05-15T04:06:53.888Z,11.70
2019-05-15T04:09:24.821Z,13.07
2019-05-15T04:11:55.447Z,9.13
2019-05-15T04:14:25.806Z,14.27
2019-05-15T04:16:59.126Z,10.50
2019-05-15T04:19:29.597Z,15.47
2019-05-15T04:22:00.543Z,10.20
2019-05-15T04:24:31.290Z,10.63
2019-05-15T04:27:06.242Z,9.53
2019-05-15T04:29:34.904Z,12.47
2019-05-15T04:32:05.949Z,13.43
2019-05-15T04:34:39.473Z,11.17
2019-05-15T04:37:09.391Z,12.30
2019-05-15T04:39:40.276Z,9.47
2019-05-15T04:42:10.716Z,11.93
2019-05-15T04:44:41.044Z,11.83
2019-05-15T04:47:11.548Z,12.10
2019-05-15T04:49:42.308Z,11.17
2019-05-15T04:52:12.619Z,11.20
2019-05-15T04:54:43.851Z,10.83
2019-05-15T04:57:14.904Z,10.43
2019-05-15T04:59:45.431Z,12.30
2019-05-15T05:02:25.971Z,11.17
2019-05-15T05:04:49.687Z,10.20
2019-05-15T05:07:21.028Z,13.73
2019-05-15T05:09:51.139Z,16.43
2019-05-15T05:12:21.648Z,13.80
2019-05-15T05:14:52.290Z,25.43
2019-05-15T05:17:23.551Z,22.33
2019-05-15T05:19:53.536Z,15.33
2019-05-15T05:22:23.669Z,16.57
2019-05-15T05:24:53.879Z,11.93
2019-05-15T05:27:24.006Z,12.97
2019-05-15T05:29:54.255Z,15.80
2019-05-15T05:32:34.326Z,19.63
2019-05-15T05:34:58.822Z,16.43
2019-05-15T05:37:29.615Z,17.43
2019-05-15T05:40:00.234Z,16.00
2019-05-15T05:42:30.449Z,18.37
2019-05-15T05:45:00.459Z,18.67
2019-05-15T05:47:31.605Z,16.97
2019-05-15T05:50:01.515Z,20.40
2019-05-15T05:52:31.227Z,22.47
2019-05-15T05:55:01.359Z,20.60
2019-05-15T05:57:31.589Z,13.47
2019-05-15T06:00:01.706Z,17.00
2019-05-15T06:02:43.864Z,18.40
2019-05-15T06:05:04.088Z,16.97
2019-05-15T06:07:35.493Z,14.97
2019-05-15T06:10:05.948Z,16.23
2019-05-15T06:12:39.003Z,14.10
2019-05-15T06:15:12.534Z,15.10
2019-05-15T06:17:42.247Z,16.50
2019-05-15T06:20:15.439Z,18.03
2019-05-15T06:22:45.251Z,14.27
2019-05-15T06:25:19.858Z,17.90
2019-05-15T06:27:53.476Z,15.43
2019-05-15T06:30:29.813Z,13.53
2019-05-15T06:33:08.319Z,15.57
2019-05-15T06:35:31.247Z,15.33
2019-05-15T06:38:03.071Z,16.73
2019-05-15T06:40:34.889Z,14.43
2019-05-15T06:43:08.841Z,14.30
2019-05-15T06:45:42.546Z,15.97
2019-05-15T06:48:21.663Z,13.50
2019-05-15T06:50:52.110Z,13.70
2019-05-15T06:53:22.518Z,13.80
2019-05-15T06:55:52.636Z,16.80
2019-05-15T06:58:25.921Z,22.50
2019-05-15T07:00:58.993Z,17.17
2019-05-15T07:03:29.310Z,15.17
2019-05-15T07:06:00.050Z,18.67
2019-05-15T07:08:30.501Z,15.60
2019-05-15T07:11:00.103Z,18.27
2019-05-15T07:13:29.814Z,14.70
2019-05-15T07:15:59.726Z,13.27
2019-05-15T07:18:29.642Z,16.23
2019-05-15T07:20:59.251Z,17.03
2019-05-15T07:23:30.738Z,12.10
2019-05-15T07:26:01.226Z,16.47
2019-05-15T07:28:31.455Z,11.70
2019-05-15T07:31:01.465Z,13.17
2019-05-15T07:33:39.012Z,13.13
2019-05-15T07:36:04.264Z,13.60
2019-05-15T07:38:34.281Z,14.27
2019-05-15T07:41:04.688Z,14.13
2019-05-15T07:43:34.917Z,11.10
2019-05-15T07:46:04.885Z,11.60
2019-05-15T07:48:34.859Z,11.07
2019-05-15T07:51:04.669Z,13.87
2019-05-15T07:53:34.884Z,10.93
2019-05-15T07:56:04.926Z,10.80
2019-05-15T07:58:34.720Z,8.50
2019-05-15T08:01:05.599Z,11.30
2019-05-15T08:03:38.124Z,9.33
2019-05-15T08:06:08.856Z,12.10
2019-05-15T08:08:39.324Z,10.67
2019-05-15T08:11:20.402Z,11.50
2019-05-15T08:13:42.730Z,11.43
2019-05-15T08:16:12.615Z,10.50
2019-05-15T08:18:42.438Z,9.23
2019-05-15T08:21:12.571Z,11.63
2019-05-15T08:23:42.370Z,11.63
2019-05-15T08:26:12.290Z,17.00
2019-05-15T08:28:45.462Z,15.40
2019-05-15T08:31:15.274Z,21.40
2019-05-15T08:33:45.393Z,26.30
2019-05-15T08:36:15.511Z,29.37
2019-05-15T08:38:48.526Z,25.40
2019-05-15T08:41:18.528Z,23.30
2019-05-15T08:43:49.041Z,24.40
2019-05-15T08:46:19.477Z,23.07
2019-05-15T08:48:49.336Z,30.87
2019-05-15T08:51:20.231Z,34.50
2019-05-15T08:53:50.033Z,38.70
2019-05-15T08:56:20.171Z,43.77
2019-05-15T08:58:50.578Z,40.53
2019-05-15T09:01:20.803Z,32.83
2019-05-15T09:03:51.120Z,29.90
2019-05-15T09:06:23.149Z,31.60
2019-05-15T09:08:52.897Z,29.47
2019-05-15T09:11:23.120Z,34.80
2019-05-15T09:13:54.498Z,27.33
2019-05-15T09:16:28.042Z,34.70
2019-05-15T09:18:59.141Z,45.47
2019-05-15T09:21:29.530Z,42.63
2019-05-15T09:23:59.571Z,42.83
2019-05-15T09:26:30.609Z,36.70
2019-05-15T09:29:02.268Z,38.80
2019-05-15T09:31:34.211Z,39.23
2019-05-15T09:34:04.635Z,44.63
2019-05-15T09:36:35.680Z,47.90
2019-05-15T09:39:08.739Z,41.10
2019-05-15T09:41:39.211Z,36.90
2019-05-15T09:44:09.438Z,35.37
2019-05-15T09:46:40.050Z,41.20
2019-05-15T09:49:10.895Z,41.50
2019-05-15T09:51:41.099Z,44.73
2019-05-15T09:54:11.532Z,40.30
2019-05-15T09:56:41.883Z,41.43
2019-05-15T09:59:13.303Z,44.83
2019-05-15T10:01:43.430Z,42.83
2019-05-15T10:04:13.329Z,38.17
2019-05-15T10:06:48.598Z,42.50
2019-05-15T10:09:19.729Z,42.50
2019-05-15T10:11:49.728Z,38.73
2019-05-15T10:14:19.742Z,36.97
2019-05-15T10:19:41.282Z,40.93
2019-05-15T10:22:11.409Z,41.73
2019-05-15T10:24:41.533Z,42.17
2019-05-15T10:27:11.739Z,40.33
2019-05-15T10:29:42.168Z,34.50
2019-05-15T10:32:12.489Z,33.77
2019-05-15T10:34:42.616Z,33.87
2019-05-15T10:37:13.049Z,40.97
2019-05-15T10:39:43.159Z,39.37
2019-05-15T10:42:14.311Z,32.67
2019-05-15T10:44:44.624Z,32.73
2019-05-15T10:47:14.886Z,39.83
2019-05-15T10:49:45.070Z,36.70
2019-05-15T10:52:14.988Z,36.43
2019-05-15T10:54:45.110Z,36.20
2019-05-15T10:57:18.696Z,43.00
2019-05-15T10:59:49.223Z,32.90
2019-05-15T11:02:33.073Z,31.00
2019-05-15T11:08:15.109Z,37.10
2019-05-15T11:10:58.597Z,38.07
2019-05-15T11:13:34.783Z,35.73
2019-05-15T11:16:06.023Z,41.93
2019-05-15T11:18:39.417Z,40.03
2019-05-15T11:21:09.440Z,39.50
2019-05-15T11:23:45.183Z,42.00
2019-05-15T11:26:16.250Z,39.17
2019-05-15T11:28:49.413Z,43.23
2019-05-15T11:31:25.590Z,42.60
2019-05-15T11:33:58.482Z,33.87
2019-05-15T11:36:33.088Z,37.00
2019-05-15T11:39:03.409Z,34.50
2019-05-15T11:41:33.323Z,42.97
2019-05-15T11:44:03.543Z,37.93
2019-05-15T11:46:33.664Z,40.97
2019-05-15T11:49:05.327Z,37.30
2019-05-15T11:51:38.382Z,37.80
2019-05-15T11:54:11.603Z,37.87
2019-05-15T11:56:43.572Z,37.27
2019-05-15T11:59:18.503Z,29.80
2019-05-15T12:01:50.870Z,29.67
2019-05-15T12:04:30.235Z,38.00
2019-05-15T12:07:02.063Z,39.03
2019-05-15T12:09:57.944Z,36.10
2019-05-15T12:12:53.599Z,43.53
2019-05-15T12:15:28.126Z,34.77
2019-05-15T12:18:01.824Z,33.30
2019-05-15T12:20:39.413Z,34.53
2019-05-15T12:23:14.566Z,34.20
2019-05-15T12:25:49.487Z,30.67
2019-05-15T12:28:58.995Z,42.00
2019-05-15T12:31:38.895Z,32.20
2019-05-15T12:37:31.233Z,34.83
2019-05-15T13:02:18.583Z,55.50
2019-05-15T13:07:39.835Z,35.80
2019-05-15T13:10:55.114Z,42.63
2019-05-15T13:20:18.423Z,37.03
2019-05-15T13:25:24.283Z,37.60
2019-05-15T13:28:04.334Z,50.53
2019-05-15T13:30:41.040Z,50.07
2019-05-15T13:33:12.884Z,51.40
2019-05-15T13:35:45.777Z,43.10
2019-05-15T13:38:18.234Z,48.57
2019-05-15T13:40:51.115Z,52.00
2019-05-15T13:43:22.561Z,41.37
2019-05-15T13:45:58.034Z,49.10
2019-05-15T13:48:29.883Z,55.60
2019-05-15T13:51:02.134Z,37.97
2019-05-15T13:53:38.561Z,41.53
2019-05-15T13:56:29.227Z,40.93
2019-05-15T13:58:59.841Z,39.10
2019-05-15T14:01:30.256Z,55.20
2019-05-15T14:04:00.368Z,46.43
2019-05-15T14:06:30.283Z,52.53
2019-05-15T14:09:01.020Z,36.87
2019-05-15T14:11:31.712Z,39.03
2019-05-15T14:14:02.590Z,38.47
2019-05-15T14:16:32.890Z,38.33
2019-05-15T14:19:03.777Z,46.10
2019-05-15T14:21:33.878Z,35.77
2019-05-15T14:24:03.682Z,47.90
2019-05-15T14:26:35.436Z,43.57
2019-05-15T14:29:08.844Z,52.73
2019-05-15T14:31:39.476Z,40.37
2019-05-15T14:34:10.512Z,35.37
2019-05-15T14:36:41.050Z,35.93
2019-05-15T14:39:11.170Z,37.30
2019-05-15T14:41:41.581Z,37.73
2019-05-15T14:44:17.634Z,48.90
2019-05-15T14:46:42.944Z,40.87
2019-05-15T14:49:13.185Z,41.40
2019-05-15T14:51:43.714Z,32.87
2019-05-15T14:54:14.223Z,34.73
2019-05-15T14:56:45.175Z,35.53
2019-05-15T14:59:15.612Z,46.73
2019-05-15T15:01:45.891Z,42.63
2019-05-15T15:04:18.325Z,33.20
2019-05-15T15:06:48.728Z,32.10
2019-05-15T15:09:19.134Z,35.37
2019-05-15T15:11:49.360Z,34.43
2019-05-15T15:14:19.568Z,45.63
2019-05-15T15:16:49.820Z,44.57
2019-05-15T15:19:20.628Z,34.40
2019-05-15T15:21:51.462Z,49.33
2019-05-15T15:24:21.601Z,41.73
2019-05-15T15:26:52.135Z,39.33
2019-05-15T15:29:22.050Z,39.13
2019-05-15T15:31:52.248Z,47.57
2019-05-15T15:34:23.204Z,34.93
2019-05-15T15:36:54.146Z,41.80
2019-05-15T15:39:24.664Z,53.70
2019-05-15T15:41:54.584Z,49.97
2019-05-15T15:44:24.485Z,41.27
2019-05-15T15:46:55.247Z,57.37
2019-05-15T15:49:27.756Z,50.33
2019-05-15T15:51:59.142Z,42.70
2019-05-15T15:54:29.688Z,54.07
2019-05-15T15:57:02.768Z,41.17
2019-05-15T15:59:33.508Z,58.07
2019-05-15T16:02:03.731Z,41.30
2019-05-15T16:04:39.239Z,53.97
2019-05-15T16:07:09.682Z,50.77
2019-05-15T16:09:40.421Z,54.27
2019-05-15T16:12:11.152Z,47.47
2019-05-15T16:14:42.007Z,51.60
2019-05-15T16:17:12.912Z,49.33
2019-05-15T16:19:58.890Z,54.20
2019-05-15T16:22:28.407Z,80.90
2019-05-15T16:25:10.057Z,74.27
2019-05-15T16:27:52.242Z,50.20
2019-05-15T16:30:47.227Z,48.93
2019-05-15T16:48:13.038Z,50.60
2019-05-15T16:50:48.720Z,56.23
2019-05-15T16:53:30.799Z,52.57
2019-05-15T16:56:11.913Z,64.60
2019-05-15T16:58:48.111Z,51.00
2019-05-15T17:01:19.368Z,49.80
2019-05-15T17:03:52.887Z,45.60
2019-05-15T17:06:24.718Z,57.10
2019-05-15T17:08:57.929Z,45.53
2019-05-15T17:11:29.572Z,49.03
2019-05-15T17:14:02.053Z,55.73
2019-05-15T17:16:33.481Z,45.97
2019-05-15T17:19:08.570Z,53.37
2019-05-15T17:21:39.680Z,36.63
2019-05-15T17:24:10.411Z,39.70
2019-05-15T17:26:41.437Z,42.17
2019-05-15T17:29:12.268Z,39.47
2019-05-15T17:31:43.642Z,40.03
2019-05-15T17:34:14.700Z,47.43
2019-05-15T17:36:45.627Z,38.77
2019-05-15T17:39:18.795Z,44.77
2019-05-15T17:41:54.884Z,38.90
2019-05-15T17:44:25.474Z,43.83
2019-05-15T17:46:59.888Z,40.87
2019-05-15T17:49:51.743Z,36.63
2019-05-15T17:52:34.230Z,37.77
2019-05-15T17:55:09.068Z,32.67
2019-05-15T17:57:53.815Z,47.93
2019-05-15T18:00:19.664Z,37.83
2019-05-15T18:02:52.032Z,31.53
2019-05-15T18:05:25.096Z,34.77
2019-05-15T18:07:58.160Z,35.13
2019-05-15T18:10:32.512Z,34.10
2019-05-15T18:13:05.822Z,32.83
2019-05-15T18:15:39.722Z,32.27
2019-05-15T18:18:15.669Z,35.23
2019-05-15T18:20:52.242Z,32.03
2019-05-15T18:23:40.603Z,35.43
2019-05-15T18:26:21.884Z,39.40
2019-05-15T18:29:04.781Z,30.70
2019-05-15T18:31:42.576Z,34.20
2019-05-15T18:34:14.443Z,36.00
2019-05-15T18:36:45.475Z,29.90
2019-05-15T18:39:38.874Z,47.63
2019-05-15T18:42:32.001Z,34.13
2019-05-15T18:45:33.907Z,31.67
2019-05-15T18:48:09.114Z,34.83
2019-05-15T18:50:48.315Z,36.80
2019-05-15T18:53:23.794Z,36.20
2019-05-15T18:55:55.642Z,31.33
2019-05-15T18:58:26.982Z,39.43
2019-05-15T19:00:58.642Z,40.77
2019-05-15T19:03:40.642Z,36.83
2019-05-15T19:06:22.957Z,31.40
2019-05-15T19:09:08.166Z,38.60
2019-05-15T19:11:45.889Z,34.70
2019-05-15T19:14:19.111Z,30.17
2019-05-15T19:17:01.423Z,29.17
2019-05-15T19:19:38.824Z,32.47
2019-05-15T19:22:15.085Z,30.63
2019-05-15T19:28:29.662Z,36.87
2019-05-15T19:31:23.355Z,40.00
2019-05-15T19:33:53.739Z,24.70
2019-05-15T19:42:28.675Z,31.17
2019-05-15T19:44:59.562Z,30.73
2019-05-15T19:47:29.581Z,34.87
2019-05-15T19:50:12.485Z,41.97
2019-05-15T19:52:50.287Z,26.90
2019-05-15T19:55:21.421Z,37.60
2019-05-15T19:57:51.661Z,29.93
2019-05-15T20:00:22.273Z,39.87
2019-05-15T20:02:53.642Z,35.20
2019-05-15T20:05:24.161Z,30.43
2019-05-15T20:07:55.422Z,25.73
2019-05-15T20:10:26.244Z,21.87
2019-05-15T20:12:58.458Z,19.97
2019-05-15T20:15:29.649Z,21.00
2019-05-15T20:18:00.174Z,17.53
2019-05-15T20:20:31.229Z,17.40
2019-05-15T20:23:01.651Z,16.43
2019-05-15T20:25:32.064Z,13.43
2019-05-15T20:28:03.011Z,10.60
2019-05-15T20:30:33.835Z,13.03
2019-05-15T20:33:05.309Z,10.80
2019-05-15T20:35:35.621Z,8.60
2019-05-15T20:38:05.749Z,8.27
2019-05-15T20:40:36.281Z,10.77
2019-05-15T20:43:08.210Z,7.67
2019-05-15T20:45:39.359Z,8.83
2019-05-15T20:48:10.503Z,9.77
2019-05-15T20:50:42.672Z,14.57
2019-05-15T20:53:14.635Z,10.87
2019-05-15T20:55:45.603Z,9.87
2019-05-15T20:58:19.501Z,12.60
2019-05-15T21:00:49.909Z,9.63
2019-05-15T21:03:21.903Z,9.93
2019-05-15T21:05:54.661Z,8.40
2019-05-15T21:08:25.802Z,9.03
2019-05-15T21:10:58.906Z,10.53
2019-05-15T21:13:29.842Z,11.70
2019-05-15T21:16:00.557Z,10.80
2019-05-15T21:18:30.890Z,11.47
2019-05-15T21:21:01.321Z,10.23
2019-05-15T21:23:31.769Z,15.70
2019-05-15T21:26:02.062Z,15.10
2019-05-15T21:28:32.278Z,14.37
2019-05-15T21:31:02.623Z,16.03
2019-05-15T21:33:33.226Z,16.13
2019-05-15T21:36:03.581Z,13.90
2019-05-15T21:38:33.900Z,13.93
2019-05-15T21:41:04.510Z,14.03
2019-05-15T21:43:35.450Z,16.43
2019-05-15T21:46:05.683Z,19.33
2019-05-15T21:48:38.343Z,20.63
2019-05-15T21:51:11.905Z,13.53
2019-05-15T21:53:42.400Z,13.73
2019-05-15T21:56:13.741Z,14.30
2019-05-15T21:58:44.353Z,15.10
2019-05-15T22:01:15.301Z,15.23
2019-05-15T22:03:45.410Z,10.90
2019-05-15T22:06:18.293Z,11.13
2019-05-15T22:08:48.521Z,11.50
2019-05-15T22:11:21.857Z,10.87
2019-05-15T22:13:52.691Z,10.47
2019-05-15T22:16:32.497Z,10.50
2019-05-15T22:19:05.299Z,9.80
2019-05-15T22:21:40.300Z,9.80
2019-05-15T22:24:08.888Z,11.87
2019-05-15T22:26:39.827Z,12.33
2019-05-15T22:29:10.681Z,8.83
2019-05-15T22:31:41.400Z,13.10
2019-05-15T22:34:11.736Z,13.47
2019-05-15T22:36:42.243Z,10.47
2019-05-15T22:39:13.291Z,10.73
2019-05-15T22:41:44.427Z,8.37
2019-05-15T22:44:14.851Z,7.63
2019-05-15T22:46:45.484Z,10.27
2019-05-15T22:49:15.612Z,8.03
2019-05-15T22:51:45.834Z,11.73
2019-05-15T22:54:16.259Z,9.67
2019-05-15T22:56:48.263Z,12.13
2019-05-15T22:59:19.458Z,9.87
2019-05-15T23:01:49.689Z,8.20
2019-05-15T23:04:19.703Z,13.40
2019-05-15T23:06:50.329Z,13.77
2019-05-15T23:09:20.548Z,11.57
2019-05-15T23:11:50.577Z,12.20
2019-05-15T23:14:21.500Z,10.27
2019-05-15T23:16:52.248Z,8.87
2019-05-15T23:19:23.187Z,9.03
2019-05-15T23:21:54.524Z,12.23
2019-05-15T23:24:25.261Z,10.20
2019-05-15T23:26:55.705Z,10.43
2019-05-15T23:29:26.214Z,12.67
2019-05-15T23:31:58.385Z,10.57
2019-05-15T23:34:28.698Z,9.87
2019-05-15T23:36:59.126Z,9.70
2019-05-15T23:39:29.878Z,13.93
2019-05-15T23:42:00.794Z,9.07
2019-05-15T23:44:31.323Z,10.87
2019-05-15T23:47:01.666Z,10.30
2019-05-15T23:49:32.184Z,15.50
2019-05-15T23:52:03.447Z,13.43
2019-05-15T23:54:33.760Z,10.07
2019-05-15T23:57:04.076Z,13.40
2019-05-15T23:59:38.465Z,10.27
